sensor_id;sensor_type;location;lat;lon;timestamp;P1;durP1;ratioP1;P2;durP2;ratioP2
74926;SDS011;63488;48.092;-1.640;2023-03-11T00:01:28;1.25;;;0.70;;
74926;SDS011;63488;48.092;-1.640;2023-03-11T00:03:54;1.35;;;0.80;;
74926;SDS011;63488;48.092;-1.640;2023-03-11T00:06:19;3.08;;;0.80;;
74926;SDS011;63488;48.092;-1.640;2023-03-11T00:08:44;0.93;;;0.80;;
74926;SDS011;63488;48.092;-1.640;2023-03-11T00:11:10;1.63;;;0.80;;
74926;SDS011;63488;48.092;-1.640;2023-03-11T00:13:35;1.65;;;0.90;;
74926;SDS011;63488;48.092;-1.640;2023-03-11T00:16:01;1.20;;;0.88;;
74926;SDS011;63488;48.092;-1.640;2023-03-11T00:18:27;0.93;;;0.73;;
74926;SDS011;63488;48.092;-1.640;2023-03-11T00:20:55;0.90;;;0.77;;
74926;SDS011;63488;48.092;-1.640;2023-03-11T00:23:21;1.30;;;0.75;;
74926;SDS011;63488;48.092;-1.640;2023-03-11T00:25:47;0.80;;;0.80;;
74926;SDS011;63488;48.092;-1.640;2023-03-11T00:28:12;1.00;;;0.82;;
74926;SDS011;63488;48.092;-1.640;2023-03-11T00:30:39;0.70;;;0.63;;
74926;SDS011;63488;48.092;-1.640;2023-03-11T00:33:05;1.10;;;0.75;;
74926;SDS011;63488;48.092;-1.640;2023-03-11T00:35:31;1.33;;;0.70;;
74926;SDS011;63488;48.092;-1.640;2023-03-11T00:37:58;1.20;;;0.82;;
74926;SDS011;63488;48.092;-1.640;2023-03-11T00:40:24;1.20;;;0.70;;
74926;SDS011;63488;48.092;-1.640;2023-03-11T00:42:49;1.10;;;0.85;;
74926;SDS011;63488;48.092;-1.640;2023-03-11T00:45:15;2.45;;;0.88;;
74926;SDS011;63488;48.092;-1.640;2023-03-11T00:47:40;1.10;;;0.70;;
74926;SDS011;63488;48.092;-1.640;2023-03-11T00:50:06;1.73;;;0.77;;
74926;SDS011;63488;48.092;-1.640;2023-03-11T00:52:33;1.27;;;0.88;;
74926;SDS011;63488;48.092;-1.640;2023-03-11T00:54:59;1.00;;;0.90;;
74926;SDS011;63488;48.092;-1.640;2023-03-11T00:57:24;1.27;;;0.90;;
74926;SDS011;63488;48.092;-1.640;2023-03-11T00:59:51;1.50;;;1.00;;
74926;SDS011;63488;48.092;-1.640;2023-03-11T01:02:17;1.35;;;1.08;;
74926;SDS011;63488;48.092;-1.640;2023-03-11T01:04:42;1.50;;;1.02;;
74926;SDS011;63488;48.092;-1.640;2023-03-11T01:07:08;1.95;;;1.10;;
74926;SDS011;63488;48.092;-1.640;2023-03-11T01:09:33;1.20;;;1.10;;
74926;SDS011;63488;48.092;-1.640;2023-03-11T01:11:58;1.70;;;0.90;;
74926;SDS011;63488;48.092;-1.640;2023-03-11T01:14:24;1.80;;;1.00;;
74926;SDS011;63488;48.092;-1.640;2023-03-11T01:16:49;1.42;;;1.02;;
74926;SDS011;63488;48.092;-1.640;2023-03-11T01:19:14;2.88;;;1.10;;
74926;SDS011;63488;48.092;-1.640;2023-03-11T01:21:40;1.42;;;1.25;;
74926;SDS011;63488;48.092;-1.640;2023-03-11T01:24:07;1.67;;;1.02;;
74926;SDS011;63488;48.092;-1.640;2023-03-11T01:26:32;1.23;;;1.05;;
74926;SDS011;63488;48.092;-1.640;2023-03-11T01:28:57;1.05;;;0.90;;
74926;SDS011;63488;48.092;-1.640;2023-03-11T01:31:23;1.50;;;1.02;;
74926;SDS011;63488;48.092;-1.640;2023-03-11T01:33:48;1.23;;;0.98;;
74926;SDS011;63488;48.092;-1.640;2023-03-11T01:36:13;1.13;;;1.00;;
74926;SDS011;63488;48.092;-1.640;2023-03-11T01:38:39;1.17;;;0.80;;
74926;SDS011;63488;48.092;-1.640;2023-03-11T01:41:04;1.05;;;0.88;;
74926;SDS011;63488;48.092;-1.640;2023-03-11T01:48:26;1.63;;;0.65;;
74926;SDS011;63488;48.092;-1.640;2023-03-11T01:50:52;0.77;;;0.70;;
74926;SDS011;63488;48.092;-1.640;2023-03-11T01:53:17;0.82;;;0.52;;
74926;SDS011;63488;48.092;-1.640;2023-03-11T01:55:45;0.77;;;0.75;;
74926;SDS011;63488;48.092;-1.640;2023-03-11T01:58:15;0.75;;;0.60;;
74926;SDS011;63488;48.092;-1.640;2023-03-11T02:00:41;3.20;;;0.65;;
74926;SDS011;63488;48.092;-1.640;2023-03-11T02:03:18;0.90;;;0.77;;
74926;SDS011;63488;48.092;-1.640;2023-03-11T02:05:45;1.95;;;0.60;;
74926;SDS011;63488;48.092;-1.640;2023-03-11T02:08:11;0.80;;;0.60;;
74926;SDS011;63488;48.092;-1.640;2023-03-11T02:10:38;1.88;;;0.63;;
74926;SDS011;63488;48.092;-1.640;2023-03-11T02:13:04;0.98;;;0.55;;
74926;SDS011;63488;48.092;-1.640;2023-03-11T02:15:30;1.45;;;0.65;;
74926;SDS011;63488;48.092;-1.640;2023-03-11T02:17:55;0.88;;;0.60;;
74926;SDS011;63488;48.092;-1.640;2023-03-11T02:23:04;1.30;;;0.60;;
74926;SDS011;63488;48.092;-1.640;2023-03-11T02:27:58;0.73;;;0.70;;
74926;SDS011;63488;48.092;-1.640;2023-03-11T02:30:25;1.25;;;0.70;;
74926;SDS011;63488;48.092;-1.640;2023-03-11T02:32:51;1.75;;;0.75;;
74926;SDS011;63488;48.092;-1.640;2023-03-11T02:35:18;0.73;;;0.60;;
74926;SDS011;63488;48.092;-1.640;2023-03-11T02:37:47;0.63;;;0.60;;
74926;SDS011;63488;48.092;-1.640;2023-03-11T02:42:50;1.05;;;0.70;;
74926;SDS011;63488;48.092;-1.640;2023-03-11T02:45:17;1.23;;;0.70;;
74926;SDS011;63488;48.092;-1.640;2023-03-11T02:47:44;0.70;;;0.70;;
74926;SDS011;63488;48.092;-1.640;2023-03-11T02:50:11;1.33;;;0.77;;
74926;SDS011;63488;48.092;-1.640;2023-03-11T02:52:37;0.73;;;0.60;;
74926;SDS011;63488;48.092;-1.640;2023-03-11T02:55:03;1.10;;;0.70;;
74926;SDS011;63488;48.092;-1.640;2023-03-11T02:57:28;0.70;;;0.70;;
74926;SDS011;63488;48.092;-1.640;2023-03-11T02:59:53;0.95;;;0.63;;
74926;SDS011;63488;48.092;-1.640;2023-03-11T03:02:19;1.15;;;0.77;;
74926;SDS011;63488;48.092;-1.640;2023-03-11T03:04:44;0.63;;;0.63;;
74926;SDS011;63488;48.092;-1.640;2023-03-11T03:07:09;1.17;;;0.52;;
74926;SDS011;63488;48.092;-1.640;2023-03-11T03:09:35;1.50;;;0.95;;
74926;SDS011;63488;48.092;-1.640;2023-03-11T03:12:01;0.98;;;0.70;;
74926;SDS011;63488;48.092;-1.640;2023-03-11T03:14:26;1.10;;;0.70;;
74926;SDS011;63488;48.092;-1.640;2023-03-11T03:16:52;2.05;;;0.68;;
74926;SDS011;63488;48.092;-1.640;2023-03-11T03:19:17;0.75;;;0.73;;
74926;SDS011;63488;48.092;-1.640;2023-03-11T03:21:42;0.73;;;0.65;;
74926;SDS011;63488;48.092;-1.640;2023-03-11T03:24:08;2.65;;;0.60;;
74926;SDS011;63488;48.092;-1.640;2023-03-11T03:26:33;1.45;;;0.70;;
74926;SDS011;63488;48.092;-1.640;2023-03-11T03:28:58;0.90;;;0.60;;
74926;SDS011;63488;48.092;-1.640;2023-03-11T03:31:24;1.42;;;0.70;;
74926;SDS011;63488;48.092;-1.640;2023-03-11T03:33:49;3.00;;;0.77;;
74926;SDS011;63488;48.092;-1.640;2023-03-11T03:36:14;1.60;;;0.80;;
74926;SDS011;63488;48.092;-1.640;2023-03-11T03:38:40;1.42;;;0.88;;
74926;SDS011;63488;48.092;-1.640;2023-03-11T03:41:06;1.15;;;0.73;;
74926;SDS011;63488;48.092;-1.640;2023-03-11T03:43:31;1.77;;;0.63;;
74926;SDS011;63488;48.092;-1.640;2023-03-11T03:45:57;1.52;;;0.70;;
74926;SDS011;63488;48.092;-1.640;2023-03-11T03:48:23;1.42;;;0.73;;
74926;SDS011;63488;48.092;-1.640;2023-03-11T03:50:48;1.08;;;0.73;;
74926;SDS011;63488;48.092;-1.640;2023-03-11T03:53:14;0.60;;;0.50;;
74926;SDS011;63488;48.092;-1.640;2023-03-11T03:55:39;0.85;;;0.68;;
74926;SDS011;63488;48.092;-1.640;2023-03-11T03:58:04;1.35;;;0.60;;
74926;SDS011;63488;48.092;-1.640;2023-03-11T04:00:30;0.90;;;0.57;;
74926;SDS011;63488;48.092;-1.640;2023-03-11T04:02:55;1.63;;;0.70;;
74926;SDS011;63488;48.092;-1.640;2023-03-11T04:05:20;0.50;;;0.45;;
74926;SDS011;63488;48.092;-1.640;2023-03-11T04:07:46;0.60;;;0.50;;
74926;SDS011;63488;48.092;-1.640;2023-03-11T04:10:12;0.55;;;0.45;;
74926;SDS011;63488;48.092;-1.640;2023-03-11T04:12:38;1.23;;;0.50;;
74926;SDS011;63488;48.092;-1.640;2023-03-11T04:15:03;0.60;;;0.50;;
74926;SDS011;63488;48.092;-1.640;2023-03-11T04:17:28;0.40;;;0.40;;
74926;SDS011;63488;48.092;-1.640;2023-03-11T04:19:54;0.63;;;0.50;;
74926;SDS011;63488;48.092;-1.640;2023-03-11T04:22:19;1.38;;;0.45;;
74926;SDS011;63488;48.092;-1.640;2023-03-11T04:24:44;0.50;;;0.50;;
74926;SDS011;63488;48.092;-1.640;2023-03-11T04:27:10;1.10;;;0.43;;
74926;SDS011;63488;48.092;-1.640;2023-03-11T04:29:35;1.35;;;0.50;;
74926;SDS011;63488;48.092;-1.640;2023-03-11T04:32:00;0.90;;;0.68;;
74926;SDS011;63488;48.092;-1.640;2023-03-11T04:34:26;0.90;;;0.68;;
74926;SDS011;63488;48.092;-1.640;2023-03-11T04:36:52;0.63;;;0.60;;
74926;SDS011;63488;48.092;-1.640;2023-03-11T04:39:17;1.05;;;0.70;;
74926;SDS011;63488;48.092;-1.640;2023-03-11T04:41:43;1.48;;;0.80;;
74926;SDS011;63488;48.092;-1.640;2023-03-11T04:44:08;0.95;;;0.77;;
74926;SDS011;63488;48.092;-1.640;2023-03-11T04:46:33;0.70;;;0.60;;
74926;SDS011;63488;48.092;-1.640;2023-03-11T04:48:59;1.00;;;0.70;;
74926;SDS011;63488;48.092;-1.640;2023-03-11T04:51:24;0.80;;;0.70;;
74926;SDS011;63488;48.092;-1.640;2023-03-11T04:53:49;1.10;;;0.68;;
74926;SDS011;63488;48.092;-1.640;2023-03-11T04:56:15;0.60;;;0.60;;
74926;SDS011;63488;48.092;-1.640;2023-03-11T04:58:40;0.93;;;0.75;;
74926;SDS011;63488;48.092;-1.640;2023-03-11T05:01:05;0.60;;;0.60;;
74926;SDS011;63488;48.092;-1.640;2023-03-11T05:03:31;0.70;;;0.50;;
74926;SDS011;63488;48.092;-1.640;2023-03-11T05:05:56;0.73;;;0.50;;
74926;SDS011;63488;48.092;-1.640;2023-03-11T05:08:22;0.43;;;0.43;;
74926;SDS011;63488;48.092;-1.640;2023-03-11T05:10:48;0.75;;;0.50;;
74926;SDS011;63488;48.092;-1.640;2023-03-11T05:13:13;0.75;;;0.57;;
74926;SDS011;63488;48.092;-1.640;2023-03-11T05:15:38;0.80;;;0.50;;
74926;SDS011;63488;48.092;-1.640;2023-03-11T05:18:04;0.40;;;0.40;;
74926;SDS011;63488;48.092;-1.640;2023-03-11T05:20:29;0.77;;;0.60;;
74926;SDS011;63488;48.092;-1.640;2023-03-11T05:22:56;0.98;;;0.60;;
74926;SDS011;63488;48.092;-1.640;2023-03-11T05:25:21;0.73;;;0.60;;
74926;SDS011;63488;48.092;-1.640;2023-03-11T05:27:46;0.73;;;0.50;;
74926;SDS011;63488;48.092;-1.640;2023-03-11T05:30:12;0.47;;;0.47;;
74926;SDS011;63488;48.092;-1.640;2023-03-11T05:32:39;0.50;;;0.50;;
74926;SDS011;63488;48.092;-1.640;2023-03-11T05:35:04;1.40;;;0.70;;
74926;SDS011;63488;48.092;-1.640;2023-03-11T05:37:30;0.60;;;0.55;;
74926;SDS011;63488;48.092;-1.640;2023-03-11T05:39:56;0.60;;;0.60;;
74926;SDS011;63488;48.092;-1.640;2023-03-11T05:42:21;0.80;;;0.68;;
74926;SDS011;63488;48.092;-1.640;2023-03-11T05:44:46;0.65;;;0.65;;
74926;SDS011;63488;48.092;-1.640;2023-03-11T05:47:12;0.70;;;0.70;;
74926;SDS011;63488;48.092;-1.640;2023-03-11T05:49:37;0.60;;;0.60;;
74926;SDS011;63488;48.092;-1.640;2023-03-11T05:52:02;1.23;;;0.60;;
74926;SDS011;63488;48.092;-1.640;2023-03-11T05:54:28;1.33;;;0.68;;
74926;SDS011;63488;48.092;-1.640;2023-03-11T05:56:53;0.80;;;0.80;;
74926;SDS011;63488;48.092;-1.640;2023-03-11T05:59:19;0.90;;;0.80;;
74926;SDS011;63488;48.092;-1.640;2023-03-11T06:01:45;0.82;;;0.60;;
74926;SDS011;63488;48.092;-1.640;2023-03-11T06:04:10;0.80;;;0.70;;
74926;SDS011;63488;48.092;-1.640;2023-03-11T06:06:37;0.57;;;0.57;;
74926;SDS011;63488;48.092;-1.640;2023-03-11T06:09:02;0.90;;;0.80;;
74926;SDS011;63488;48.092;-1.640;2023-03-11T06:11:28;0.73;;;0.70;;
74926;SDS011;63488;48.092;-1.640;2023-03-11T06:13:54;0.77;;;0.77;;
74926;SDS011;63488;48.092;-1.640;2023-03-11T06:16:20;0.52;;;0.52;;
74926;SDS011;63488;48.092;-1.640;2023-03-11T06:18:46;2.20;;;0.70;;
74926;SDS011;63488;48.092;-1.640;2023-03-11T06:21:18;0.68;;;0.68;;
74926;SDS011;63488;48.092;-1.640;2023-03-11T06:23:44;0.77;;;0.70;;
74926;SDS011;63488;48.092;-1.640;2023-03-11T06:26:11;0.80;;;0.80;;
74926;SDS011;63488;48.092;-1.640;2023-03-11T06:28:37;0.82;;;0.80;;
74926;SDS011;63488;48.092;-1.640;2023-03-11T06:31:07;0.90;;;0.80;;
74926;SDS011;63488;48.092;-1.640;2023-03-11T06:35:58;0.80;;;0.80;;
74926;SDS011;63488;48.092;-1.640;2023-03-11T06:38:24;0.63;;;0.63;;
74926;SDS011;63488;48.092;-1.640;2023-03-11T06:40:49;0.80;;;0.80;;
74926;SDS011;63488;48.092;-1.640;2023-03-11T06:43:15;0.70;;;0.70;;
74926;SDS011;63488;48.092;-1.640;2023-03-11T06:45:40;0.80;;;0.80;;
74926;SDS011;63488;48.092;-1.640;2023-03-11T06:48:05;1.48;;;0.98;;
74926;SDS011;63488;48.092;-1.640;2023-03-11T06:50:31;0.80;;;0.80;;
74926;SDS011;63488;48.092;-1.640;2023-03-11T06:52:56;1.10;;;0.73;;
74926;SDS011;63488;48.092;-1.640;2023-03-11T06:55:22;0.90;;;0.90;;
74926;SDS011;63488;48.092;-1.640;2023-03-11T06:57:47;1.20;;;1.00;;
74926;SDS011;63488;48.092;-1.640;2023-03-11T07:00:13;1.20;;;1.10;;
74926;SDS011;63488;48.092;-1.640;2023-03-11T07:02:38;0.80;;;0.80;;
74926;SDS011;63488;48.092;-1.640;2023-03-11T07:05:04;0.80;;;0.80;;
74926;SDS011;63488;48.092;-1.640;2023-03-11T07:07:29;0.70;;;0.70;;
74926;SDS011;63488;48.092;-1.640;2023-03-11T07:09:56;0.80;;;0.80;;
74926;SDS011;63488;48.092;-1.640;2023-03-11T07:12:22;0.98;;;0.90;;
74926;SDS011;63488;48.092;-1.640;2023-03-11T07:14:53;1.05;;;0.60;;
74926;SDS011;63488;48.092;-1.640;2023-03-11T07:17:18;0.77;;;0.70;;
74926;SDS011;63488;48.092;-1.640;2023-03-11T07:19:43;0.80;;;0.80;;
74926;SDS011;63488;48.092;-1.640;2023-03-11T07:22:09;0.80;;;0.80;;
74926;SDS011;63488;48.092;-1.640;2023-03-11T07:24:34;0.88;;;0.88;;
74926;SDS011;63488;48.092;-1.640;2023-03-11T07:26:59;0.70;;;0.70;;
74926;SDS011;63488;48.092;-1.640;2023-03-11T07:29:24;0.70;;;0.70;;
74926;SDS011;63488;48.092;-1.640;2023-03-11T07:31:50;0.82;;;0.70;;
74926;SDS011;63488;48.092;-1.640;2023-03-11T07:34:15;1.17;;;0.90;;
74926;SDS011;63488;48.092;-1.640;2023-03-11T07:36:41;0.55;;;0.55;;
74926;SDS011;63488;48.092;-1.640;2023-03-11T07:39:06;0.82;;;0.70;;
74926;SDS011;63488;48.092;-1.640;2023-03-11T07:41:33;1.13;;;0.80;;
74926;SDS011;63488;48.092;-1.640;2023-03-11T07:43:59;0.60;;;0.60;;
74926;SDS011;63488;48.092;-1.640;2023-03-11T07:46:25;0.70;;;0.70;;
74926;SDS011;63488;48.092;-1.640;2023-03-11T07:48:50;1.15;;;0.80;;
74926;SDS011;63488;48.092;-1.640;2023-03-11T07:51:20;2.08;;;1.00;;
74926;SDS011;63488;48.092;-1.640;2023-03-11T07:53:46;0.90;;;0.70;;
74926;SDS011;63488;48.092;-1.640;2023-03-11T07:56:13;0.75;;;0.65;;
74926;SDS011;63488;48.092;-1.640;2023-03-11T07:58:38;0.88;;;0.80;;
74926;SDS011;63488;48.092;-1.640;2023-03-11T08:01:05;0.60;;;0.60;;
74926;SDS011;63488;48.092;-1.640;2023-03-11T08:03:31;0.70;;;0.70;;
74926;SDS011;63488;48.092;-1.640;2023-03-11T08:05:56;1.77;;;0.80;;
74926;SDS011;63488;48.092;-1.640;2023-03-11T08:08:22;0.63;;;0.63;;
74926;SDS011;63488;48.092;-1.640;2023-03-11T08:10:47;0.70;;;0.70;;
74926;SDS011;63488;48.092;-1.640;2023-03-11T08:13:12;0.70;;;0.55;;
74926;SDS011;63488;48.092;-1.640;2023-03-11T08:15:38;1.90;;;0.60;;
74926;SDS011;63488;48.092;-1.640;2023-03-11T08:18:03;0.70;;;0.60;;
74926;SDS011;63488;48.092;-1.640;2023-03-11T08:20:29;0.50;;;0.50;;
74926;SDS011;63488;48.092;-1.640;2023-03-11T08:22:54;0.55;;;0.55;;
74926;SDS011;63488;48.092;-1.640;2023-03-11T08:25:20;0.82;;;0.60;;
74926;SDS011;63488;48.092;-1.640;2023-03-11T08:27:45;0.63;;;0.60;;
74926;SDS011;63488;48.092;-1.640;2023-03-11T08:30:10;0.70;;;0.70;;
74926;SDS011;63488;48.092;-1.640;2023-03-11T08:32:36;10.52;;;8.38;;
74926;SDS011;63488;48.092;-1.640;2023-03-11T08:35:01;0.70;;;0.70;;
74926;SDS011;63488;48.092;-1.640;2023-03-11T08:37:27;0.73;;;0.63;;
74926;SDS011;63488;48.092;-1.640;2023-03-11T08:39:52;0.73;;;0.70;;
74926;SDS011;63488;48.092;-1.640;2023-03-11T08:42:17;0.50;;;0.50;;
74926;SDS011;63488;48.092;-1.640;2023-03-11T08:44:43;0.55;;;0.55;;
74926;SDS011;63488;48.092;-1.640;2023-03-11T08:47:09;0.65;;;0.50;;
74926;SDS011;63488;48.092;-1.640;2023-03-11T08:49:34;1.60;;;0.80;;
74926;SDS011;63488;48.092;-1.640;2023-03-11T08:52:01;1.10;;;0.80;;
74926;SDS011;63488;48.092;-1.640;2023-03-11T08:54:27;0.70;;;0.50;;
74926;SDS011;63488;48.092;-1.640;2023-03-11T08:56:52;0.50;;;0.50;;
74926;SDS011;63488;48.092;-1.640;2023-03-11T08:59:17;1.98;;;0.63;;
74926;SDS011;63488;48.092;-1.640;2023-03-11T09:01:43;0.40;;;0.40;;
74926;SDS011;63488;48.092;-1.640;2023-03-11T09:04:08;0.30;;;0.30;;
74926;SDS011;63488;48.092;-1.640;2023-03-11T09:06:33;0.40;;;0.30;;
74926;SDS011;63488;48.092;-1.640;2023-03-11T09:08:59;0.30;;;0.30;;
74926;SDS011;63488;48.092;-1.640;2023-03-11T09:11:24;0.40;;;0.40;;
74926;SDS011;63488;48.092;-1.640;2023-03-11T09:13:50;0.50;;;0.40;;
74926;SDS011;63488;48.092;-1.640;2023-03-11T09:16:16;0.52;;;0.40;;
74926;SDS011;63488;48.092;-1.640;2023-03-11T09:18:42;0.60;;;0.43;;
74926;SDS011;63488;48.092;-1.640;2023-03-11T09:21:08;0.38;;;0.38;;
74926;SDS011;63488;48.092;-1.640;2023-03-11T09:23:33;0.47;;;0.40;;
74926;SDS011;63488;48.092;-1.640;2023-03-11T09:25:59;6.32;;;4.47;;
74926;SDS011;63488;48.092;-1.640;2023-03-11T09:28:24;2.88;;;2.00;;
74926;SDS011;63488;48.092;-1.640;2023-03-11T09:30:49;0.80;;;0.70;;
74926;SDS011;63488;48.092;-1.640;2023-03-11T09:33:15;0.70;;;0.40;;
74926;SDS011;63488;48.092;-1.640;2023-03-11T09:35:40;0.40;;;0.40;;
74926;SDS011;63488;48.092;-1.640;2023-03-11T09:38:05;0.88;;;0.40;;
74926;SDS011;63488;48.092;-1.640;2023-03-11T09:43:26;0.60;;;0.60;;
74926;SDS011;63488;48.092;-1.640;2023-03-11T09:45:55;0.90;;;0.60;;
74926;SDS011;63488;48.092;-1.640;2023-03-11T09:53:25;0.57;;;0.50;;
74926;SDS011;63488;48.092;-1.640;2023-03-11T09:55:59;0.60;;;0.60;;
74926;SDS011;63488;48.092;-1.640;2023-03-11T09:58:36;0.60;;;0.60;;
74926;SDS011;63488;48.092;-1.640;2023-03-11T10:01:24;1.23;;;0.60;;
74926;SDS011;63488;48.092;-1.640;2023-03-11T10:03:48;0.90;;;0.50;;
74926;SDS011;63488;48.092;-1.640;2023-03-11T10:06:22;0.82;;;0.50;;
74926;SDS011;63488;48.092;-1.640;2023-03-11T10:08:50;1.15;;;1.02;;
74926;SDS011;63488;48.092;-1.640;2023-03-11T10:13:44;0.50;;;0.50;;
74926;SDS011;63488;48.092;-1.640;2023-03-11T10:16:22;0.63;;;0.52;;
74926;SDS011;63488;48.092;-1.640;2023-03-11T10:19:01;0.52;;;0.50;;
74926;SDS011;63488;48.092;-1.640;2023-03-11T10:26:41;0.52;;;0.45;;
74926;SDS011;63488;48.092;-1.640;2023-03-11T10:29:15;0.55;;;0.30;;
74926;SDS011;63488;48.092;-1.640;2023-03-11T10:32:32;0.38;;;0.30;;
74926;SDS011;63488;48.092;-1.640;2023-03-11T10:34:38;0.60;;;0.60;;
74926;SDS011;63488;48.092;-1.640;2023-03-11T10:37:10;0.93;;;0.70;;
74926;SDS011;63488;48.092;-1.640;2023-03-11T10:39:37;0.60;;;0.60;;
74926;SDS011;63488;48.092;-1.640;2023-03-11T10:42:04;0.50;;;0.30;;
74926;SDS011;63488;48.092;-1.640;2023-03-11T10:44:31;0.65;;;0.40;;
74926;SDS011;63488;48.092;-1.640;2023-03-11T10:46:58;0.73;;;0.50;;
74926;SDS011;63488;48.092;-1.640;2023-03-11T10:49:23;0.47;;;0.40;;
74926;SDS011;63488;48.092;-1.640;2023-03-11T10:51:49;0.32;;;0.30;;
74926;SDS011;63488;48.092;-1.640;2023-03-11T10:54:28;0.60;;;0.43;;
74926;SDS011;63488;48.092;-1.640;2023-03-11T10:57:02;0.30;;;0.30;;
74926;SDS011;63488;48.092;-1.640;2023-03-11T11:00:02;0.70;;;0.60;;
74926;SDS011;63488;48.092;-1.640;2023-03-11T11:02:27;1.15;;;0.57;;
74926;SDS011;63488;48.092;-1.640;2023-03-11T11:05:06;0.57;;;0.40;;
74926;SDS011;63488;48.092;-1.640;2023-03-11T11:12:35;1.33;;;0.40;;
74926;SDS011;63488;48.092;-1.640;2023-03-11T11:15:01;0.43;;;0.30;;
74926;SDS011;63488;48.092;-1.640;2023-03-11T11:17:30;0.30;;;0.30;;
74926;SDS011;63488;48.092;-1.640;2023-03-11T11:22:22;0.60;;;0.60;;
74926;SDS011;63488;48.092;-1.640;2023-03-11T11:24:48;0.38;;;0.38;;
74926;SDS011;63488;48.092;-1.640;2023-03-11T11:27:16;0.65;;;0.50;;
74926;SDS011;63488;48.092;-1.640;2023-03-11T11:29:43;0.47;;;0.40;;
74926;SDS011;63488;48.092;-1.640;2023-03-11T11:34:36;0.50;;;0.38;;
74926;SDS011;63488;48.092;-1.640;2023-03-11T11:37:03;1.67;;;1.20;;
74926;SDS011;63488;48.092;-1.640;2023-03-11T11:39:35;0.70;;;0.50;;
74926;SDS011;63488;48.092;-1.640;2023-03-11T11:42:04;1.10;;;0.45;;
74926;SDS011;63488;48.092;-1.640;2023-03-11T11:44:33;1.08;;;0.70;;
74926;SDS011;63488;48.092;-1.640;2023-03-11T11:47:11;0.90;;;0.55;;
74926;SDS011;63488;48.092;-1.640;2023-03-11T11:49:38;0.73;;;0.30;;
74926;SDS011;63488;48.092;-1.640;2023-03-11T11:54:37;0.50;;;0.40;;
74926;SDS011;63488;48.092;-1.640;2023-03-11T11:57:10;0.57;;;0.50;;
74926;SDS011;63488;48.092;-1.640;2023-03-11T11:59:35;0.55;;;0.40;;
74926;SDS011;63488;48.092;-1.640;2023-03-11T12:14:40;0.75;;;0.40;;
74926;SDS011;63488;48.092;-1.640;2023-03-11T12:17:07;0.50;;;0.50;;
74926;SDS011;63488;48.092;-1.640;2023-03-11T12:19:50;0.30;;;0.30;;
74926;SDS011;63488;48.092;-1.640;2023-03-11T12:25:07;0.95;;;0.35;;
74926;SDS011;63488;48.092;-1.640;2023-03-11T12:27:46;0.43;;;0.38;;
74926;SDS011;63488;48.092;-1.640;2023-03-11T12:30:17;0.40;;;0.40;;
74926;SDS011;63488;48.092;-1.640;2023-03-11T12:32:48;0.47;;;0.47;;
74926;SDS011;63488;48.092;-1.640;2023-03-11T12:37:44;3.15;;;1.77;;
74926;SDS011;63488;48.092;-1.640;2023-03-11T12:42:53;0.90;;;0.70;;
74926;SDS011;63488;48.092;-1.640;2023-03-11T12:46:01;1.30;;;0.90;;
74926;SDS011;63488;48.092;-1.640;2023-03-11T12:50:51;1.02;;;0.93;;
74926;SDS011;63488;48.092;-1.640;2023-03-11T12:53:16;1.10;;;1.00;;
74926;SDS011;63488;48.092;-1.640;2023-03-11T12:55:54;1.60;;;1.50;;
74926;SDS011;63488;48.092;-1.640;2023-03-11T12:59:11;2.03;;;1.10;;
74926;SDS011;63488;48.092;-1.640;2023-03-11T13:01:16;2.60;;;1.20;;
74926;SDS011;63488;48.092;-1.640;2023-03-11T13:07:26;2.25;;;1.70;;
74926;SDS011;63488;48.092;-1.640;2023-03-11T13:09:15;3.50;;;1.70;;
74926;SDS011;63488;48.092;-1.640;2023-03-11T13:11:44;2.47;;;1.67;;
74926;SDS011;63488;48.092;-1.640;2023-03-11T13:16:40;2.22;;;1.80;;
74926;SDS011;63488;48.092;-1.640;2023-03-11T13:21:50;2.85;;;1.83;;
74926;SDS011;63488;48.092;-1.640;2023-03-11T13:32:24;3.70;;;2.05;;
74926;SDS011;63488;48.092;-1.640;2023-03-11T13:40:05;3.35;;;2.20;;
74926;SDS011;63488;48.092;-1.640;2023-03-11T13:42:45;4.28;;;2.20;;
74926;SDS011;63488;48.092;-1.640;2023-03-11T13:45:24;2.95;;;2.00;;
74926;SDS011;63488;48.092;-1.640;2023-03-11T13:47:51;3.72;;;2.20;;
74926;SDS011;63488;48.092;-1.640;2023-03-11T13:50:20;3.90;;;2.42;;
74926;SDS011;63488;48.092;-1.640;2023-03-11T13:52:47;4.05;;;2.65;;
74926;SDS011;63488;48.092;-1.640;2023-03-11T13:55:18;3.90;;;2.80;;
74926;SDS011;63488;48.092;-1.640;2023-03-11T13:57:54;4.10;;;2.40;;
74926;SDS011;63488;48.092;-1.640;2023-03-11T14:00:21;4.60;;;2.72;;
74926;SDS011;63488;48.092;-1.640;2023-03-11T14:02:49;2.80;;;2.15;;
74926;SDS011;63488;48.092;-1.640;2023-03-11T14:05:20;3.28;;;2.30;;
74926;SDS011;63488;48.092;-1.640;2023-03-11T14:07:46;3.72;;;2.60;;
74926;SDS011;63488;48.092;-1.640;2023-03-11T14:12:40;3.30;;;2.67;;
74926;SDS011;63488;48.092;-1.640;2023-03-11T14:15:06;3.90;;;2.50;;
74926;SDS011;63488;48.092;-1.640;2023-03-11T14:17:32;4.50;;;2.60;;
74926;SDS011;63488;48.092;-1.640;2023-03-11T14:20:01;4.30;;;2.17;;
74926;SDS011;63488;48.092;-1.640;2023-03-11T14:22:28;5.00;;;2.90;;
74926;SDS011;63488;48.092;-1.640;2023-03-11T14:24:54;4.43;;;2.65;;
74926;SDS011;63488;48.092;-1.640;2023-03-11T14:27:21;3.67;;;2.63;;
74926;SDS011;63488;48.092;-1.640;2023-03-11T14:29:47;4.82;;;2.60;;
74926;SDS011;63488;48.092;-1.640;2023-03-11T14:34:47;3.40;;;2.70;;
74926;SDS011;63488;48.092;-1.640;2023-03-11T14:37:30;5.50;;;2.60;;
74926;SDS011;63488;48.092;-1.640;2023-03-11T14:39:56;4.47;;;2.60;;
74926;SDS011;63488;48.092;-1.640;2023-03-11T14:42:22;3.65;;;2.42;;
74926;SDS011;63488;48.092;-1.640;2023-03-11T14:44:59;3.53;;;2.47;;
74926;SDS011;63488;48.092;-1.640;2023-03-11T14:48:11;2.63;;;2.22;;
74926;SDS011;63488;48.092;-1.640;2023-03-11T14:50:19;4.70;;;2.30;;
74926;SDS011;63488;48.092;-1.640;2023-03-11T14:55:45;3.53;;;2.20;;
74926;SDS011;63488;48.092;-1.640;2023-03-11T15:00:43;2.75;;;1.83;;
74926;SDS011;63488;48.092;-1.640;2023-03-11T15:03:12;4.25;;;1.98;;
74926;SDS011;63488;48.092;-1.640;2023-03-11T15:08:09;4.50;;;1.85;;
74926;SDS011;63488;48.092;-1.640;2023-03-11T15:10:34;4.38;;;1.60;;
74926;SDS011;63488;48.092;-1.640;2023-03-11T15:13:04;2.25;;;1.20;;
74926;SDS011;63488;48.092;-1.640;2023-03-11T15:15:30;3.47;;;1.55;;
74926;SDS011;63488;48.092;-1.640;2023-03-11T15:17:56;4.70;;;2.03;;
74926;SDS011;63488;48.092;-1.640;2023-03-11T15:22:54;3.17;;;1.60;;
74926;SDS011;63488;48.092;-1.640;2023-03-11T15:25:25;2.97;;;1.23;;
74926;SDS011;63488;48.092;-1.640;2023-03-11T15:27:50;3.20;;;1.30;;
74926;SDS011;63488;48.092;-1.640;2023-03-11T15:30:20;3.22;;;1.08;;
74926;SDS011;63488;48.092;-1.640;2023-03-11T15:32:46;7.60;;;1.67;;
74926;SDS011;63488;48.092;-1.640;2023-03-11T15:37:44;4.95;;;1.42;;
74926;SDS011;63488;48.092;-1.640;2023-03-11T15:40:11;5.35;;;1.90;;
74926;SDS011;63488;48.092;-1.640;2023-03-11T15:42:37;5.70;;;2.50;;
74926;SDS011;63488;48.092;-1.640;2023-03-11T15:45:07;5.50;;;2.75;;
74926;SDS011;63488;48.092;-1.640;2023-03-11T15:47:33;4.03;;;2.80;;
74926;SDS011;63488;48.092;-1.640;2023-03-11T15:50:22;5.60;;;2.67;;
74926;SDS011;63488;48.092;-1.640;2023-03-11T15:52:47;5.18;;;2.60;;
74926;SDS011;63488;48.092;-1.640;2023-03-11T15:55:12;7.20;;;2.85;;
74926;SDS011;63488;48.092;-1.640;2023-03-11T15:57:38;7.78;;;2.72;;
74926;SDS011;63488;48.092;-1.640;2023-03-11T16:00:04;4.60;;;2.60;;
74926;SDS011;63488;48.092;-1.640;2023-03-11T16:02:30;5.88;;;2.75;;
74926;SDS011;63488;48.092;-1.640;2023-03-11T16:04:56;4.97;;;2.63;;
74926;SDS011;63488;48.092;-1.640;2023-03-11T16:07:22;6.70;;;3.30;;
74926;SDS011;63488;48.092;-1.640;2023-03-11T16:09:47;5.50;;;3.25;;
74926;SDS011;63488;48.092;-1.640;2023-03-11T16:12:17;4.18;;;2.60;;
74926;SDS011;63488;48.092;-1.640;2023-03-11T16:14:43;6.10;;;2.60;;
74926;SDS011;63488;48.092;-1.640;2023-03-11T16:17:09;6.55;;;3.53;;
74926;SDS011;63488;48.092;-1.640;2023-03-11T16:19:38;5.13;;;3.20;;